Aeroporto :
LOGIN :

Iscrizione | Disclaimer

   EN    FR    IT 

 










Sommario :    VFR   VFR Marginale   IFR   IFR Intensivo   IFR Molto Intensivo
Visibilità : 
Base nubi : 
>= 8 km
>= 3000ft
5 / 8 km
1000 / 3000 ft
1500m / 5 km
500 / 1000 ft
800 / 1500m
200 / 500 ft
< 800m
< 200 ft
Simboli :   Temporali  Nebbia  Neve Forte  Precipitazioni Forti  Vento > 20 kt
SIGMETs :   Varie  Temporali  Ghiacco  Turbolenza  Onda orograficha  Ceneri Vulcaniche






- Altitudine del aeroporto : 257 ft
- Codice IATA : MAN


EGCC - Manchester

ULTIMO METAR :
  • 022150Z AUTO VRB01KT 9999 NCD 13/09 Q1015 NOSIG

METARs OBSOLETI :
  • 022120Z AUTO VRB02KT 9999 NCD 14/09 Q1015
  • 022050Z AUTO 29004KT 9999 NCD 13/09 Q1015
  • 022020Z AUTO 30004KT 270V330 9999 NCD 14/09 Q1015 NOSIG
  • 021950Z AUTO 29005KT 9999 NCD 15/09 Q1014 NOSIG
  • 021920Z AUTO 30006KT 9999 NCD 15/09 Q1014

TAF TAF EGCC
Valido dal 02 a 18 ore il 04 a 00 ore UTC


021701Z 0218/0324 30008KT 9999 FEW040
TEMPO 0302/0307 8000
PROB30 0303/0306 4000 BR
PROB30
TEMPO 0310/0318 6000 SHRA BKN014
ATIS : +44 161 499 2324



MetMap, La meteo Aeronautica in un colpo d'occhio ! - Copyright ORBIFLY Dicembre 2007 - Disclaimer

ORBIFLY MET'MAP TEAM :

Programmazione e sviluppo : Alexandra Zaïnal
Concezione : Baudouin d'Aumeries
Aiuto per la programmazione : Marc-Olivier Méhu
Supporto tecnico e logistico : Manuel Goepfert
Aiuto per la traduzione : Arnaldo La Scala

Contatto : metmap@orbifly.com




FONTI E CREDITI :

   NOAA